Time;durP1;ratioP1;P1;durP2;ratioP2;P2;SDS_P1;SDS_P2;PMS_P1;PMS_P2;Temp;Humidity;BMP_temperature;BMP_pressure;BME280_temperature;BME280_humidity;BME280_pressure;Samples;Min_cycle;Max_cycle;Signal;HPM_P1;HPM_P2
2022/07/01 00:00:58;;;;;;;5.10;1.20;;;16.50;99.90;;;;;;4976471;28;20046;-71
2022/07/01 00:03:27;;;;;;;5.18;1.20;;;16.50;99.90;;;;;;4993665;28;20469;-71
2022/07/01 00:05:52;;;;;;;5.22;1.20;;;16.50;99.90;;;;;;4978743;28;20042;-71
2022/07/01 00:08:18;;;;;;;4.05;1.10;;;16.50;99.90;;;;;;4979888;28;20475;-71
2022/07/01 00:10:43;;;;;;;3.60;1.05;;;16.50;99.90;;;;;;4979877;28;20100;-71
2022/07/01 00:13:09;;;;;;;4.63;1.50;;;16.60;99.90;;;;;;4979932;28;20427;-71
2022/07/01 00:15:35;;;;;;;4.18;1.27;;;16.60;99.90;;;;;;4980157;28;20089;-71
2022/07/01 00:18:00;;;;;;;7.03;1.58;;;16.50;99.90;;;;;;4979683;28;20462;-71
2022/07/01 00:20:26;;;;;;;4.75;0.93;;;16.50;99.90;;;;;;4980028;28;20105;-71
2022/07/01 00:22:52;;;;;;;4.65;1.27;;;16.60;99.90;;;;;;4979977;28;20047;-71
2022/07/01 00:25:17;;;;;;;11.30;1.40;;;16.60;99.90;;;;;;4979643;28;20621;-71
2022/07/01 00:27:43;;;;;;;2.83;0.90;;;16.60;99.90;;;;;;4979736;28;20046;-71
2022/07/01 00:30:10;;;;;;;5.07;1.10;;;16.60;99.90;;;;;;4979563;28;20042;-70
2022/07/01 00:32:36;;;;;;;5.40;1.17;;;16.60;99.90;;;;;;4979474;28;20049;-70
2022/07/01 00:35:02;;;;;;;5.38;1.17;;;16.60;99.90;;;;;;4979563;28;20042;-70
2022/07/01 00:37:28;;;;;;;4.82;1.02;;;16.60;99.90;;;;;;4979533;28;20042;-71
2022/07/01 00:39:54;;;;;;;6.18;1.00;;;16.60;99.90;;;;;;4979756;28;20049;-71
2022/07/01 00:42:19;;;;;;;4.32;0.98;;;16.60;99.90;;;;;;4979505;28;20078;-71
2022/07/01 00:44:45;;;;;;;3.88;0.82;;;16.50;99.90;;;;;;4979357;28;20092;-71
2022/07/01 00:47:13;;;;;;;4.55;0.73;;;16.50;99.90;;;;;;4979150;28;20042;-71
2022/07/01 00:49:39;;;;;;;3.28;0.80;;;16.50;99.90;;;;;;4995319;28;20078;-71
2022/07/01 00:52:07;;;;;;;2.22;0.75;;;16.50;99.90;;;;;;4995106;28;20046;-71
2022/07/01 00:54:35;;;;;;;2.22;0.70;;;16.60;99.90;;;;;;4979201;28;20057;-71
2022/07/01 00:57:10;;;;;;;2.38;0.75;;;16.60;99.90;;;;;;4995290;28;20085;-71
2022/07/01 00:59:37;;;;;;;2.42;0.40;;;16.60;99.90;;;;;;4962977;28;20138;-71
2022/07/01 01:02:04;;;;;;;2.50;0.60;;;16.50;99.90;;;;;;4979207;28;20046;-71
2022/07/01 01:04:30;;;;;;;3.85;0.70;;;16.50;99.90;;;;;;4995397;28;20046;-71
2022/07/01 01:06:56;;;;;;;2.22;0.70;;;16.40;99.90;;;;;;4978731;28;20129;-71
2022/07/01 01:09:22;;;;;;;2.63;0.55;;;16.40;99.90;;;;;;4978973;28;20549;-71
2022/07/01 01:11:48;;;;;;;2.22;0.55;;;16.40;99.90;;;;;;4978905;28;20035;-71
2022/07/01 01:14:13;;;;;;;3.10;0.60;;;16.40;99.90;;;;;;4978752;28;20080;-71
2022/07/01 01:16:39;;;;;;;2.90;1.00;;;16.40;99.90;;;;;;4978058;28;20116;-71
2022/07/01 01:19:06;;;;;;;1.83;0.80;;;16.40;99.90;;;;;;4978428;28;20052;-71
2022/07/01 01:21:33;;;;;;;4.22;0.80;;;16.40;99.90;;;;;;4978920;28;20089;-71
2022/07/01 01:24:02;;;;;;;2.17;0.73;;;16.40;99.90;;;;;;4978588;28;20093;-71
2022/07/01 01:26:28;;;;;;;2.45;0.70;;;16.40;99.90;;;;;;4978663;28;20113;-71
2022/07/01 01:28:53;;;;;;;1.48;0.60;;;16.40;99.90;;;;;;4994748;28;20174;-71
2022/07/01 01:31:30;;;;;;;4.35;0.60;;;16.40;99.90;;;;;;4978296;28;20043;-71
2022/07/01 01:33:56;;;;;;;4.75;0.63;;;16.40;99.90;;;;;;4978442;28;20051;-71
2022/07/01 01:36:22;;;;;;;2.97;0.70;;;16.40;99.90;;;;;;4978644;28;20045;-71
2022/07/01 01:38:48;;;;;;;5.15;0.57;;;16.40;99.90;;;;;;4994456;28;20509;-71
2022/07/01 01:41:13;;;;;;;2.05;0.60;;;16.40;99.90;;;;;;4978200;28;20049;-71
2022/07/01 01:43:39;;;;;;;3.75;0.50;;;16.40;99.90;;;;;;4978217;28;20101;-71
2022/07/01 01:46:05;;;;;;;2.22;0.60;;;16.50;99.90;;;;;;4978400;28;20073;-70
2022/07/01 01:48:31;;;;;;;2.40;0.60;;;16.50;99.90;;;;;;4978355;28;20462;-70
2022/07/01 01:50:57;;;;;;;1.20;0.52;;;16.40;99.90;;;;;;4977911;28;20133;-70
2022/07/01 01:53:23;;;;;;;2.17;0.80;;;16.40;99.90;;;;;;4977907;28;20129;-71
2022/07/01 01:55:49;;;;;;;5.15;1.08;;;16.40;99.90;;;;;;4977962;28;20035;-71
2022/07/01 01:58:15;;;;;;;1.25;0.60;;;16.40;99.90;;;;;;4978162;28;20057;-71
2022/07/01 02:00:40;;;;;;;1.73;0.65;;;16.40;99.90;;;;;;4962121;28;20376;-71
2022/07/01 02:03:06;;;;;;;1.55;1.00;;;16.40;99.90;;;;;;4977783;28;20565;-71
2022/07/01 02:05:32;;;;;;;2.38;0.75;;;16.40;99.90;;;;;;4962173;28;20487;-71
2022/07/01 02:07:58;;;;;;;2.85;0.80;;;16.40;99.90;;;;;;4977807;28;20502;-71
2022/07/01 02:10:23;;;;;;;2.28;0.70;;;16.40;99.90;;;;;;4977618;28;20050;-71
2022/07/01 02:12:49;;;;;;;2.90;0.70;;;16.40;99.90;;;;;;4977576;28;20050;-71
2022/07/01 02:15:14;;;;;;;3.22;0.82;;;16.40;99.90;;;;;;4977631;28;20035;-71
2022/07/01 02:17:40;;;;;;;5.25;0.75;;;16.40;99.90;;;;;;4977637;28;20034;-71
2022/07/01 02:20:06;;;;;;;2.67;0.70;;;16.40;99.90;;;;;;4977746;28;20086;-71
2022/07/01 02:22:31;;;;;;;3.25;1.15;;;16.30;99.90;;;;;;4977657;28;20111;-71
2022/07/01 02:24:57;;;;;;;2.33;0.90;;;16.30;99.90;;;;;;4977787;28;20469;-71
2022/07/01 02:27:23;;;;;;;3.53;0.90;;;16.30;99.90;;;;;;4977272;28;20050;-71
2022/07/01 02:29:48;;;;;;;2.67;1.10;;;16.30;99.90;;;;;;4994776;28;20050;-71
2022/07/01 02:32:14;;;;;;;3.15;1.02;;;16.30;99.90;;;;;;4977259;28;20057;-71
2022/07/01 02:34:39;;;;;;;3.33;1.10;;;16.20;99.90;;;;;;4977391;28;20062;-71
2022/07/01 02:37:05;;;;;;;3.40;1.15;;;16.20;99.90;;;;;;4977394;28;20487;-71
2022/07/01 02:39:32;;;;;;;2.75;1.30;;;16.20;99.90;;;;;;4977239;28;20388;-71
2022/07/01 02:44:42;;;;;;;5.32;1.20;;;16.20;99.90;;;;;;4977153;28;20046;-71
2022/07/01 02:47:07;;;;;;;3.97;1.48;;;16.20;99.90;;;;;;4976833;28;20113;-71
2022/07/01 02:49:33;;;;;;;4.80;1.45;;;16.20;99.90;;;;;;4976995;28;20041;-71
2022/07/01 02:51:58;;;;;;;3.80;1.50;;;16.20;99.90;;;;;;4976975;28;20046;-71
2022/07/01 02:54:24;;;;;;;3.45;1.75;;;16.20;99.90;;;;;;4977055;28;20550;-71
2022/07/01 02:56:50;;;;;;;3.15;1.77;;;16.20;99.90;;;;;;4976937;28;20065;-71
2022/07/01 02:59:15;;;;;;;7.00;1.80;;;16.20;99.90;;;;;;4960948;28;20129;-71
2022/07/01 03:01:41;;;;;;;7.78;2.65;;;16.20;99.90;;;;;;4976674;28;20038;-71
2022/07/01 03:04:06;;;;;;;3.85;2.17;;;16.20;99.90;;;;;;4994247;28;20100;-71
2022/07/01 03:06:32;;;;;;;8.48;2.40;;;16.20;99.90;;;;;;4961021;28;20035;-71
2022/07/01 03:08:57;;;;;;;5.85;2.28;;;16.20;99.90;;;;;;4976782;28;20491;-71
2022/07/01 03:11:23;;;;;;;10.90;3.13;;;16.10;99.90;;;;;;4994536;28;20037;-71
2022/07/01 03:13:49;;;;;;;6.03;2.80;;;16.10;99.90;;;;;;4976513;28;20443;-71
2022/07/01 03:16:14;;;;;;;6.45;3.28;;;16.10;99.90;;;;;;4976667;28;20042;-71
2022/07/01 03:18:40;;;;;;;9.35;3.00;;;16.10;99.90;;;;;;4976606;28;20034;-71
2022/07/01 03:21:06;;;;;;;7.03;3.42;;;16.10;99.90;;;;;;4960347;28;20038;-71
2022/07/01 03:23:31;;;;;;;4.05;3.35;;;16.10;99.90;;;;;;4976682;28;20038;-71
2022/07/01 03:25:57;;;;;;;7.18;4.15;;;16.10;99.90;;;;;;4976641;28;20046;-71
2022/07/01 03:28:22;;;;;;;6.32;4.45;;;16.10;99.90;;;;;;4976755;28;20042;-71
2022/07/01 03:30:48;;;;;;;8.27;3.92;;;16.00;99.90;;;;;;4976452;28;20410;-70
2022/07/01 03:33:13;;;;;;;6.85;4.90;;;16.00;99.90;;;;;;4976446;28;20046;-70
2022/07/01 03:35:40;;;;;;;5.57;4.10;;;16.00;99.90;;;;;;4976317;28;20125;-70
2022/07/01 03:38:06;;;;;;;8.00;4.85;;;15.90;99.90;;;;;;4976481;28;20074;-70
2022/07/01 03:40:32;;;;;;;8.32;5.78;;;15.90;99.90;;;;;;4979336;28;20042;-70
2022/07/01 03:42:58;;;;;;;7.22;5.07;;;16.00;99.90;;;;;;4966696;28;20403;-70
2022/07/01 03:45:23;;;;;;;7.63;5.70;;;16.00;99.90;;;;;;5000419;28;20080;-70
2022/07/01 03:47:49;;;;;;;8.85;6.60;;;16.00;99.90;;;;;;5000601;28;20116;-70
2022/07/01 03:50:16;;;;;;;8.93;6.32;;;16.00;99.90;;;;;;4982723;28;20388;-70
2022/07/01 03:52:42;;;;;;;8.73;6.63;;;16.00;99.90;;;;;;4966299;28;20038;-70
2022/07/01 03:55:12;;;;;;;7.80;6.80;;;16.00;99.90;;;;;;4982782;28;20070;-70
2022/07/01 03:57:38;;;;;;;9.63;7.05;;;16.10;99.90;;;;;;4982683;28;20038;-70
2022/07/01 04:00:06;;;;;;;10.25;7.45;;;16.00;99.90;;;;;;4982609;28;20113;-70
2022/07/01 04:02:31;;;;;;;11.35;8.07;;;16.00;99.90;;;;;;4983016;28;20058;-70
2022/07/01 04:04:57;;;;;;;11.13;8.80;;;16.00;99.90;;;;;;4982568;28;20514;-70
2022/07/01 04:07:23;;;;;;;14.23;9.68;;;16.00;99.90;;;;;;4982466;28;20042;-70
2022/07/01 04:09:49;;;;;;;13.02;10.45;;;16.00;99.90;;;;;;4982482;28;20133;-70
2022/07/01 04:12:15;;;;;;;13.45;10.90;;;16.00;99.90;;;;;;4999727;28;20050;-70
2022/07/01 04:14:40;;;;;;;14.45;11.48;;;16.00;99.90;;;;;;4982643;28;20041;-70
2022/07/01 04:17:06;;;;;;;17.85;12.20;;;16.00;99.90;;;;;;4982653;28;20426;-70
2022/07/01 04:19:32;;;;;;;16.30;14.02;;;16.00;99.90;;;;;;4982365;28;20450;-70
2022/07/01 04:24:41;;;;;;;18.15;16.17;;;15.90;99.90;;;;;;4982302;28;20050;-71
2022/07/01 04:27:07;;;;;;;18.77;16.77;;;15.90;99.90;;;;;;4982266;28;20050;-71
2022/07/01 04:29:33;;;;;;;20.73;17.42;;;15.90;99.90;;;;;;4966429;28;20049;-71
2022/07/01 04:31:58;;;;;;;19.90;16.90;;;15.90;99.90;;;;;;4982409;28;20115;-71
2022/07/01 04:34:24;;;;;;;20.33;18.17;;;15.90;99.90;;;;;;4982276;28;20034;-71
2022/07/01 04:36:50;;;;;;;20.35;17.83;;;15.80;99.90;;;;;;4982457;28;20038;-71
2022/07/01 04:39:16;;;;;;;22.48;19.45;;;15.90;99.90;;;;;;4982698;28;20407;-71
2022/07/01 04:42:00;;;;;;;25.25;21.58;;;15.80;99.90;;;;;;4982114;28;20510;-71
2022/07/01 04:44:30;;;;;;;23.10;20.63;;;15.90;99.90;;;;;;4966254;28;20034;-71
2022/07/01 04:46:56;;;;;;;25.67;21.50;;;15.80;99.90;;;;;;4982221;28;20091;-71
2022/07/01 04:49:22;;;;;;;23.35;20.85;;;15.90;99.90;;;;;;4982358;28;20045;-71
2022/07/01 04:51:48;;;;;;;25.40;22.17;;;15.80;99.90;;;;;;4980698;28;20411;-71
2022/07/01 04:54:14;;;;;;;26.98;23.02;;;15.80;99.90;;;;;;4979223;28;20116;-71
2022/07/01 04:56:39;;;;;;;28.23;22.25;;;15.80;99.90;;;;;;4978974;28;20041;-71
2022/07/01 04:59:05;;;;;;;26.23;22.58;;;15.80;99.90;;;;;;4962939;28;20112;-71
2022/07/01 05:01:31;;;;;;;26.10;23.15;;;15.80;99.90;;;;;;4978872;28;20034;-71
2022/07/01 05:03:57;;;;;;;28.08;23.35;;;15.80;99.90;;;;;;4962773;28;20051;-71
2022/07/01 05:06:23;;;;;;;24.38;21.48;;;15.80;99.90;;;;;;4979032;28;20101;-71
2022/07/01 05:08:49;;;;;;;26.92;22.75;;;15.80;99.90;;;;;;4978798;28;20038;-71
2022/07/01 05:11:15;;;;;;;27.33;22.45;;;15.80;99.90;;;;;;4978854;28;20101;-71
2022/07/01 05:13:41;;;;;;;25.58;21.92;;;15.80;99.90;;;;;;4978599;28;20047;-71
2022/07/01 05:16:08;;;;;;;26.40;22.88;;;15.70;99.90;;;;;;4996368;28;20038;-71
2022/07/01 05:24:03;;;;;;;29.08;24.33;;;15.70;99.90;;;;;;4978494;28;20082;-71
2022/07/01 05:26:29;;;;;;;27.05;23.40;;;15.70;99.90;;;;;;4978495;28;20043;-71
2022/07/01 05:28:55;;;;;;;26.33;23.50;;;15.70;99.90;;;;;;4978702;28;20042;-71
2022/07/01 05:31:21;;;;;;;29.35;24.85;;;15.70;99.90;;;;;;4978580;28;20043;-71
2022/07/01 05:33:47;;;;;;;27.55;24.63;;;15.70;99.90;;;;;;4978195;28;20046;-71
2022/07/01 05:36:14;;;;;;;28.42;25.33;;;15.70;99.90;;;;;;4978536;28;20533;-71
2022/07/01 05:38:40;;;;;;;27.45;24.48;;;15.70;99.90;;;;;;4978278;28;20038;-71
2022/07/01 05:41:06;;;;;;;28.20;24.15;;;15.70;99.90;;;;;;4978130;28;20038;-71
2022/07/01 05:43:32;;;;;;;29.05;25.35;;;15.70;99.90;;;;;;4978162;28;20057;-71
2022/07/01 05:45:58;;;;;;;29.25;25.33;;;15.70;99.90;;;;;;4962016;28;20034;-72
2022/07/01 05:48:24;;;;;;;27.27;24.45;;;15.70;99.90;;;;;;4978300;28;20042;-71
2022/07/01 05:50:51;;;;;;;27.48;24.48;;;15.70;99.90;;;;;;4977844;28;20100;-71
2022/07/01 05:53:16;;;;;;;25.10;22.50;;;15.70;99.90;;;;;;4961922;28;20100;-71
2022/07/01 05:55:42;;;;;;;27.88;24.00;;;15.70;99.90;;;;;;4977941;28;20518;-71
2022/07/01 05:58:11;;;;;;;26.48;23.67;;;15.80;99.90;;;;;;4977847;28;20039;-71
2022/07/01 06:00:41;;;;;;;25.63;22.77;;;15.80;99.90;;;;;;4977958;28;20046;-71
2022/07/01 06:03:07;;;;;;;26.50;23.77;;;15.90;99.90;;;;;;4977313;28;20042;-71
2022/07/01 06:05:33;;;;;;;27.40;24.25;;;15.90;99.90;;;;;;4978052;28;20277;-71
2022/07/01 06:07:58;;;;;;;28.25;23.08;;;15.90;99.90;;;;;;4978031;28;20085;-71
2022/07/01 06:10:24;;;;;;;29.73;24.52;;;16.00;99.90;;;;;;4961873;28;20402;-71
2022/07/01 06:12:50;;;;;;;26.38;23.60;;;16.00;99.90;;;;;;4977842;28;20038;-71
2022/07/01 06:15:15;;;;;;;26.83;23.40;;;16.00;99.90;;;;;;4977635;28;20125;-71
2022/07/01 06:17:42;;;;;;;24.75;22.23;;;16.00;99.90;;;;;;4977507;28;20077;-71
2022/07/01 06:20:09;;;;;;;26.73;23.67;;;16.10;99.90;;;;;;4977614;28;20042;-71
2022/07/01 06:22:34;;;;;;;23.85;21.58;;;16.10;99.90;;;;;;4977292;28;20471;-71
2022/07/01 06:25:00;;;;;;;24.65;22.10;;;16.10;99.90;;;;;;4961221;28;20129;-71
2022/07/01 06:27:26;;;;;;;27.08;23.33;;;16.20;99.90;;;;;;4977516;28;20050;-71
2022/07/01 06:29:52;;;;;;;25.75;23.20;;;16.20;99.90;;;;;;4977626;28;20084;-71
2022/07/01 06:32:18;;;;;;;27.42;23.15;;;16.20;99.90;;;;;;4977333;28;20466;-72
2022/07/01 06:34:44;;;;;;;25.25;22.55;;;16.30;99.90;;;;;;4977322;28;20050;-71
2022/07/01 06:37:10;;;;;;;24.42;21.98;;;16.30;99.90;;;;;;4977263;28;20049;-71
2022/07/01 06:39:36;;;;;;;27.23;23.08;;;16.30;99.90;;;;;;4977227;28;20487;-72
2022/07/01 06:42:01;;;;;;;24.70;21.73;;;16.40;99.90;;;;;;4977385;28;20045;-71
2022/07/01 06:44:27;;;;;;;27.13;23.92;;;16.40;99.90;;;;;;4977088;28;20042;-72
2022/07/01 06:46:53;;;;;;;26.83;23.95;;;16.40;99.90;;;;;;4977024;28;20053;-71
2022/07/01 06:49:18;;;;;;;25.63;23.10;;;16.40;99.90;;;;;;4977024;28;20050;-71
2022/07/01 06:51:44;;;;;;;29.38;23.23;;;16.40;99.90;;;;;;4994345;28;20034;-71
2022/07/01 06:54:10;;;;;;;26.10;23.30;;;16.40;99.90;;;;;;4976936;28;20487;-71
2022/07/01 06:56:35;;;;;;;28.75;23.52;;;16.30;99.90;;;;;;4976937;28;20053;-71
2022/07/01 06:59:01;;;;;;;26.40;23.65;;;16.30;99.90;;;;;;4994466;28;20038;-71
2022/07/01 07:01:27;;;;;;;26.05;23.45;;;16.30;99.90;;;;;;4976882;28;20050;-70
2022/07/01 07:03:53;;;;;;;26.65;23.67;;;16.30;99.90;;;;;;4977216;28;20414;-71
2022/07/01 07:06:19;;;;;;;27.05;23.67;;;16.30;99.90;;;;;;4976794;28;20121;-71
2022/07/01 07:08:45;;;;;;;25.98;23.15;;;16.30;99.90;;;;;;4960536;28;20129;-71
2022/07/01 07:11:11;;;;;;;25.13;22.48;;;16.30;99.90;;;;;;4976551;28;20038;-71
2022/07/01 07:13:37;;;;;;;24.02;21.50;;;16.30;99.90;;;;;;4976739;28;20487;-71
2022/07/01 07:16:03;;;;;;;24.80;22.08;;;16.40;99.90;;;;;;4975869;28;20038;-71
2022/07/01 07:18:29;;;;;;;24.88;22.25;;;16.40;99.90;;;;;;4960504;28;20510;-71
2022/07/01 07:20:55;;;;;;;26.45;21.58;;;16.40;99.90;;;;;;4976522;28;20054;-71
2022/07/01 07:23:20;;;;;;;25.65;21.65;;;16.50;99.90;;;;;;4976424;28;20081;-71
2022/07/01 07:25:46;;;;;;;24.70;22.17;;;16.50;99.90;;;;;;4976666;28;20038;-72
2022/07/01 07:28:12;;;;;;;22.90;20.55;;;16.60;99.90;;;;;;4976661;28;20574;-72
2022/07/01 07:30:38;;;;;;;24.25;20.27;;;16.60;99.90;;;;;;4976291;28;20049;-72
2022/07/01 07:33:03;;;;;;;22.00;19.83;;;16.70;99.90;;;;;;4976128;28;20053;-71
2022/07/01 07:35:29;;;;;;;23.27;20.83;;;16.80;99.90;;;;;;4960292;28;20046;-71
2022/07/01 07:37:55;;;;;;;23.02;20.35;;;16.90;99.90;;;;;;4976298;28;20062;-71
2022/07/01 07:40:21;;;;;;;21.90;19.30;;;17.00;99.90;;;;;;4976603;28;20083;-71
2022/07/01 07:42:48;;;;;;;23.05;20.70;;;17.00;99.90;;;;;;4976458;28;20376;-71
2022/07/01 07:45:14;;;;;;;23.25;20.83;;;17.10;99.90;;;;;;4976235;28;20046;-71
2022/07/01 07:47:54;;;;;;;22.52;19.70;;;17.10;99.90;;;;;;4976827;28;20039;-71
2022/07/01 07:50:20;;;;;;;22.83;19.30;;;17.20;99.90;;;;;;4976303;28;20042;-71
2022/07/01 07:52:46;;;;;;;21.40;19.10;;;17.30;99.90;;;;;;4976626;28;20047;-71
2022/07/01 07:55:12;;;;;;;26.05;19.92;;;17.50;99.90;;;;;;4976394;28;20042;-73
2022/07/01 07:57:39;;;;;;;20.75;18.70;;;17.60;99.90;;;;;;4976535;28;20039;-73
2022/07/01 08:00:07;;;;;;;20.67;18.70;;;17.80;99.90;;;;;;4976081;28;20562;-73
2022/07/01 08:02:34;;;;;;;19.63;17.65;;;17.80;99.90;;;;;;4976021;28;20448;-73
2022/07/01 08:04:59;;;;;;;20.42;16.48;;;17.90;99.90;;;;;;4976249;28;20050;-73
2022/07/01 08:07:25;;;;;;;19.48;16.60;;;18.00;99.90;;;;;;4976094;28;20045;-73
2022/07/01 08:09:51;;;;;;;17.48;15.57;;;18.00;99.90;;;;;;4976013;28;20166;-73
2022/07/01 08:12:16;;;;;;;19.02;16.38;;;18.00;99.90;;;;;;4993209;28;20092;-73
2022/07/01 08:14:42;;;;;;;18.27;16.48;;;18.10;99.90;;;;;;4976269;28;20391;-73
2022/07/01 08:17:08;;;;;;;22.20;17.55;;;18.20;99.90;;;;;;4975922;28;20043;-73
2022/07/01 08:19:34;;;;;;;17.92;16.10;;;18.20;99.90;;;;;;4976451;28;20042;-73
2022/07/01 08:21:59;;;;;;;19.85;16.42;;;18.20;99.90;;;;;;4976307;28;20042;-73
2022/07/01 08:24:25;;;;;;;20.25;15.90;;;18.20;99.90;;;;;;4976474;28;20530;-72
2022/07/01 08:26:50;;;;;;;21.83;15.15;;;18.20;99.90;;;;;;4961216;28;20038;-70
2022/07/01 08:29:16;;;;;;;18.20;15.82;;;18.30;99.90;;;;;;4963671;28;20077;-73
2022/07/01 08:31:42;;;;;;;17.48;14.88;;;18.40;99.90;;;;;;4979442;28;20078;-74
2022/07/01 08:34:09;;;;;;;20.75;15.23;;;18.40;99.90;;;;;;4997488;28;20035;-70
2022/07/01 08:36:35;;;;;;;18.38;14.85;;;18.50;99.90;;;;;;4979410;28;20042;-70
2022/07/01 08:39:00;;;;;;;18.15;14.90;;;18.50;99.90;;;;;;4979369;28;20049;-70
2022/07/01 08:41:26;;;;;;;16.38;13.73;;;18.60;99.90;;;;;;4979575;28;20038;-70
2022/07/01 08:43:51;;;;;;;17.25;13.93;;;18.50;99.90;;;;;;4979317;28;20515;-70
2022/07/01 08:46:17;;;;;;;19.42;15.23;;;18.50;99.90;;;;;;4963706;28;20120;-71
2022/07/01 08:48:47;;;;;;;16.58;13.95;;;18.50;99.90;;;;;;4979199;28;20561;-71
2022/07/01 08:51:13;;;;;;;16.50;13.80;;;18.50;99.90;;;;;;4979083;28;20050;-71
2022/07/01 08:53:38;;;;;;;17.83;13.77;;;18.60;99.90;;;;;;4979911;28;20046;-71
2022/07/01 08:58:49;;;;;;;17.13;14.27;;;18.80;99.90;;;;;;4979000;28;20038;-71
2022/07/01 09:01:23;;;;;;;17.60;14.02;;;19.10;99.90;;;;;;4978936;28;20042;-71
2022/07/01 09:03:52;;;;;;;15.00;11.63;;;19.40;99.90;;;;;;4979210;28;20097;-69
2022/07/01 09:06:19;;;;;;;13.63;12.07;;;19.50;99.90;;;;;;4979052;28;20137;-69
2022/07/01 09:08:45;;;;;;;17.30;13.23;;;19.70;99.90;;;;;;4979066;28;20046;-69
2022/07/01 09:11:17;;;;;;;15.57;10.15;;;19.90;99.90;;;;;;4962731;28;20488;-69
2022/07/01 09:13:43;;;;;;;13.43;9.50;;;20.00;99.90;;;;;;4978947;28;20046;-69
2022/07/01 09:16:16;;;;;;;13.45;9.10;;;20.10;99.90;;;;;;4962642;28;20046;-69
2022/07/01 09:19:02;;;;;;;15.73;9.55;;;20.20;99.90;;;;;;4962487;28;20042;-69
2022/07/01 09:21:32;;;;;;;12.23;8.55;;;20.00;99.90;;;;;;4994753;28;20050;-68
2022/07/01 09:24:02;;;;;;;13.65;8.82;;;19.80;99.90;;;;;;4978564;28;20046;-70
2022/07/01 09:26:28;;;;;;;13.93;9.68;;;19.70;99.90;;;;;;4978727;28;20053;-69
2022/07/01 09:28:59;;;;;;;12.52;9.25;;;19.80;99.90;;;;;;4978796;28;20046;-69
2022/07/01 09:31:34;;;;;;;13.70;9.43;;;19.80;99.90;;;;;;4978539;28;20049;-69
2022/07/01 09:34:05;;;;;;;12.27;8.20;;;19.90;99.90;;;;;;4978411;28;20050;-69
2022/07/01 09:36:31;;;;;;;15.63;9.18;;;19.90;99.90;;;;;;4978414;28;20049;-69
2022/07/01 09:38:56;;;;;;;16.70;10.48;;;19.90;99.90;;;;;;4977537;28;20121;-69
2022/07/01 09:41:23;;;;;;;12.93;10.15;;;20.10;99.90;;;;;;4978459;28;20073;-69
2022/07/01 09:43:49;;;;;;;12.85;9.35;;;20.10;99.90;;;;;;4978556;28;20050;-69
2022/07/01 09:46:15;;;;;;;16.15;10.10;;;20.00;99.90;;;;;;4978168;28;20042;-69
2022/07/01 09:48:42;;;;;;;10.88;8.27;;;19.90;99.90;;;;;;4978150;28;20042;-69
2022/07/01 09:51:09;;;;;;;13.90;7.80;;;20.00;99.90;;;;;;4961858;28;20071;-69
2022/07/01 09:53:34;;;;;;;12.32;7.97;;;20.00;99.90;;;;;;4978072;28;20057;-69
2022/07/01 09:56:00;;;;;;;13.25;7.72;;;20.20;99.90;;;;;;4978025;28;20050;-71
2022/07/01 09:58:26;;;;;;;10.25;6.97;;;20.40;99.90;;;;;;4977885;28;20174;-70
2022/07/01 10:00:53;;;;;;;16.33;6.82;;;20.50;99.90;;;;;;4994272;28;20129;-71
2022/07/01 10:03:20;;;;;;;10.10;5.60;;;20.60;99.90;;;;;;4994106;28;20042;-70
2022/07/01 10:05:54;;;;;;;11.20;5.82;;;20.50;99.90;;;;;;4977874;28;20060;-70
2022/07/01 10:08:44;;;;;;;10.10;5.13;;;20.50;99.90;;;;;;4993988;28;20411;-70
2022/07/01 10:11:41;;;;;;;8.05;4.00;;;20.50;99.90;;;;;;4977864;28;20054;-70
2022/07/01 10:14:08;;;;;;;7.30;3.60;;;20.90;99.90;;;;;;4977699;28;20050;-70
2022/07/01 10:16:36;;;;;;;9.23;3.80;;;20.90;99.90;;;;;;4993864;28;20038;-70
2022/07/01 10:19:20;;;;;;;7.88;3.17;;;21.00;99.90;;;;;;4977785;28;20089;-70
2022/07/01 10:21:46;;;;;;;7.03;3.70;;;21.30;99.90;;;;;;4977532;28;20046;-70
2022/07/01 10:24:17;;;;;;;7.60;3.88;;;21.40;99.90;;;;;;4977577;28;20046;-70
2022/07/01 10:26:43;;;;;;;6.75;3.45;;;21.30;99.90;;;;;;4993610;28;20411;-70
2022/07/01 10:29:42;;;;;;;11.70;4.60;;;21.40;99.90;;;;;;4977413;28;20043;-70
2022/07/01 10:32:11;;;;;;;7.57;3.17;;;21.40;99.90;;;;;;4915811;29;20066;-70
2022/07/01 10:34:39;;;;;;;9.63;3.83;;;21.30;99.90;;;;;;4900346;29;20143;-70
2022/07/01 10:37:08;;;;;;;10.63;4.05;;;21.50;99.90;;;;;;4900030;29;20083;-70
2022/07/01 10:39:57;;;;;;;11.40;4.40;;;21.90;99.90;;;;;;4900459;29;20044;-70
2022/07/01 10:42:30;;;;;;;8.93;3.78;;;22.20;99.90;;;;;;4884451;29;20052;-70
2022/07/01 10:45:17;;;;;;;9.10;3.47;;;22.20;99.90;;;;;;4899858;29;20048;-70
2022/07/01 10:47:43;;;;;;;9.27;3.58;;;22.00;99.90;;;;;;4899856;29;20532;-70
2022/07/01 10:50:15;;;;;;;6.75;3.13;;;21.80;99.90;;;;;;4915790;29;20048;-71
2022/07/01 10:52:59;;;;;;;;;;;21.70;99.90;;;;;;4900121;29;20048;-71
2022/07/01 10:55:37;;;;;;;7.90;3.13;;;21.50;99.90;;;;;;4899884;29;19919;-71
2022/07/01 10:58:02;;;;;;;8.95;2.60;;;21.40;99.90;;;;;;4915405;29;20052;-71
2022/07/01 11:00:31;;;;;;;5.55;2.80;;;21.60;99.90;;;;;;4915470;29;20055;-71
2022/07/01 11:03:09;;;;;;;8.45;3.60;;;21.90;99.90;;;;;;4899760;29;20171;-71
2022/07/01 11:05:38;;;;;;;7.18;2.55;;;22.20;99.90;;;;;;4915436;29;20134;-71
2022/07/01 11:08:08;;;;;;;4.35;2.20;;;22.50;99.90;;;;;;4950742;28;20054;-71
2022/07/01 11:10:34;;;;;;;7.45;2.35;;;22.70;99.90;;;;;;4993020;28;20049;-71
2022/07/01 11:13:01;;;;;;;6.40;2.30;;;22.60;99.90;;;;;;4992685;28;20129;-67
2022/07/01 11:15:29;;;;;;;8.15;2.45;;;22.40;99.90;;;;;;4960796;28;20049;-68
2022/07/01 11:17:56;;;;;;;6.03;2.22;;;22.40;99.90;;;;;;4976514;28;20042;-70
2022/07/01 11:20:23;;;;;;;4.95;1.95;;;22.30;99.90;;;;;;4960412;28;20042;-70
2022/07/01 11:22:50;;;;;;;7.55;2.22;;;22.30;99.90;;;;;;4976466;28;20045;-70
2022/07/01 11:25:18;;;;;;;6.65;1.52;;;22.40;99.90;;;;;;4992729;28;20089;-70
2022/07/01 11:27:48;;;;;;;3.83;1.30;;;22.70;99.90;;;;;;4976968;28;20129;-70
2022/07/01 11:30:16;;;;;;;5.68;1.40;;;23.00;99.50;;;;;;4960262;28;20047;-70
2022/07/01 11:32:44;;;;;;;8.40;1.70;;;23.20;99.90;;;;;;4993720;28;20166;-70
2022/07/01 11:41:20;;;;;;;4.55;1.17;;;23.70;98.80;;;;;;4976249;28;20038;-71
2022/07/01 11:43:46;;;;;;;6.82;0.93;;;23.70;95.00;;;;;;4976528;28;20046;-71
2022/07/01 11:46:12;;;;;;;6.95;1.20;;;23.30;92.50;;;;;;4976437;28;20388;-71
2022/07/01 11:48:40;;;;;;;7.93;1.40;;;23.00;95.20;;;;;;4976334;28;20065;-71
2022/07/01 11:51:14;;;;;;;4.95;1.05;;;22.70;96.60;;;;;;4976297;28;20050;-71
2022/07/01 11:53:42;;;;;;;5.45;1.02;;;22.40;98.20;;;;;;4976118;28;20046;-71
2022/07/01 11:56:08;;;;;;;7.30;1.38;;;22.30;99.90;;;;;;4960144;28;20117;-71
2022/07/01 11:58:51;;;;;;;3.45;1.15;;;22.50;99.90;;;;;;4976393;28;20082;-71
2022/07/01 12:01:32;;;;;;;7.00;0.95;;;22.60;98.60;;;;;;4992848;28;20423;-71
2022/07/01 12:04:02;;;;;;;3.03;0.95;;;22.50;99.00;;;;;;4997822;28;20053;-71
2022/07/01 12:06:28;;;;;;;3.40;0.70;;;22.40;99.30;;;;;;4980012;28;20049;-71
2022/07/01 12:08:56;;;;;;;4.78;0.95;;;22.20;99.10;;;;;;4996234;28;20052;-69
2022/07/01 12:11:23;;;;;;;5.07;0.77;;;22.00;97.50;;;;;;4980019;28;20046;-70
2022/07/01 12:13:50;;;;;;;4.50;0.70;;;21.70;95.70;;;;;;4996242;28;20046;-70
2022/07/01 12:16:16;;;;;;;5.35;0.73;;;21.50;97.40;;;;;;4980083;28;20046;-70
2022/07/01 12:19:02;;;;;;;4.65;1.10;;;21.30;99.80;;;;;;4963622;28;20042;-70
2022/07/01 12:21:30;;;;;;;5.15;0.90;;;21.30;99.90;;;;;;4979697;28;20038;-70
2022/07/01 12:24:22;;;;;;;3.97;0.88;;;21.20;99.90;;;;;;4996388;28;20081;-70
2022/07/01 12:26:58;;;;;;;2.75;0.77;;;21.30;99.90;;;;;;4977180;28;20050;-70
2022/07/01 12:29:25;;;;;;;5.05;0.73;;;21.50;99.90;;;;;;4979697;28;20042;-70
2022/07/01 12:31:59;;;;;;;5.18;1.15;;;21.80;99.90;;;;;;4980000;28;20050;-70
2022/07/01 12:34:38;;;;;;;8.10;0.82;;;22.40;99.90;;;;;;4995792;28;20050;-70
2022/07/01 12:37:13;;;;;;;3.22;0.80;;;22.70;98.60;;;;;;4979500;28;20204;-70
2022/07/01 12:39:54;;;;;;;3.78;0.80;;;22.70;96.60;;;;;;4980539;28;20069;-71
2022/07/01 12:42:34;;;;;;;6.05;1.30;;;22.90;93.40;;;;;;4979290;28;20609;-70
2022/07/01 12:45:03;;;;;;;4.72;0.70;;;23.10;93.00;;;;;;4979869;28;20050;-70
2022/07/01 12:47:31;;;;;;;3.50;0.80;;;23.30;91.40;;;;;;4995525;28;20046;-70
2022/07/01 12:50:14;;;;;;;4.78;0.80;;;23.50;90.60;;;;;;4963106;28;20132;-70
2022/07/01 12:52:56;;;;;;;5.82;1.02;;;23.60;83.00;;;;;;4962982;28;20050;-70
2022/07/01 12:55:21;;;;;;;2.50;0.63;;;23.90;93.20;;;;;;4995400;28;20043;-70
2022/07/01 12:57:48;;;;;;;2.08;0.50;;;24.10;90.80;;;;;;4979036;28;20038;-71
2022/07/01 13:00:16;;;;;;;5.68;1.02;;;24.00;79.30;;;;;;4995657;28;20093;-71